sensor_id;sensor_type;location;lat;lon;timestamp;P1;durP1;ratioP1;P2;durP2;ratioP2
70487;SDS011;57976;48.174;16.370;2022-10-16T00:01:48;36.00;;;22.60;;
70487;SDS011;57976;48.174;16.370;2022-10-16T00:03:53;36.10;;;22.40;;
70487;SDS011;57976;48.174;16.370;2022-10-16T00:06:00;35.80;;;22.30;;
70487;SDS011;57976;48.174;16.370;2022-10-16T00:08:06;35.10;;;22.10;;
70487;SDS011;57976;48.174;16.370;2022-10-16T00:10:11;35.00;;;22.40;;
70487;SDS011;57976;48.174;16.370;2022-10-16T00:12:16;35.80;;;23.00;;
70487;SDS011;57976;48.174;16.370;2022-10-16T00:14:21;37.40;;;23.30;;
70487;SDS011;57976;48.174;16.370;2022-10-16T00:16:26;36.00;;;22.20;;
70487;SDS011;57976;48.174;16.370;2022-10-16T00:18:31;40.70;;;23.20;;
70487;SDS011;57976;48.174;16.370;2022-10-16T00:20:36;36.20;;;22.60;;
70487;SDS011;57976;48.174;16.370;2022-10-16T00:22:41;37.80;;;22.80;;
70487;SDS011;57976;48.174;16.370;2022-10-16T00:24:45;38.50;;;22.90;;
70487;SDS011;57976;48.174;16.370;2022-10-16T00:26:50;36.80;;;23.30;;
70487;SDS011;57976;48.174;16.370;2022-10-16T00:28:55;34.90;;;22.00;;
70487;SDS011;57976;48.174;16.370;2022-10-16T00:31:02;39.50;;;23.10;;
70487;SDS011;57976;48.174;16.370;2022-10-16T00:33:07;39.00;;;23.30;;
70487;SDS011;57976;48.174;16.370;2022-10-16T00:35:12;39.00;;;22.50;;
70487;SDS011;57976;48.174;16.370;2022-10-16T00:37:17;36.40;;;22.80;;
70487;SDS011;57976;48.174;16.370;2022-10-16T00:39:21;36.50;;;22.50;;
70487;SDS011;57976;48.174;16.370;2022-10-16T00:41:26;35.80;;;21.80;;
70487;SDS011;57976;48.174;16.370;2022-10-16T00:43:36;36.90;;;22.60;;
70487;SDS011;57976;48.174;16.370;2022-10-16T00:45:43;36.40;;;22.50;;
70487;SDS011;57976;48.174;16.370;2022-10-16T00:47:48;35.80;;;21.80;;
70487;SDS011;57976;48.174;16.370;2022-10-16T00:49:58;37.00;;;22.30;;
70487;SDS011;57976;48.174;16.370;2022-10-16T00:52:08;35.20;;;21.70;;
70487;SDS011;57976;48.174;16.370;2022-10-16T00:54:15;34.70;;;21.60;;
70487;SDS011;57976;48.174;16.370;2022-10-16T00:56:22;34.60;;;21.70;;
70487;SDS011;57976;48.174;16.370;2022-10-16T00:58:27;33.10;;;20.90;;
70487;SDS011;57976;48.174;16.370;2022-10-16T01:00:32;32.90;;;20.60;;
70487;SDS011;57976;48.174;16.370;2022-10-16T01:02:39;32.40;;;20.90;;
70487;SDS011;57976;48.174;16.370;2022-10-16T01:04:45;32.90;;;20.70;;
70487;SDS011;57976;48.174;16.370;2022-10-16T01:06:55;31.90;;;21.00;;
70487;SDS011;57976;48.174;16.370;2022-10-16T01:09:13;32.70;;;20.60;;
70487;SDS011;57976;48.174;16.370;2022-10-16T01:11:25;33.50;;;20.40;;
70487;SDS011;57976;48.174;16.370;2022-10-16T01:13:37;34.20;;;20.30;;
70487;SDS011;57976;48.174;16.370;2022-10-16T01:15:49;34.20;;;21.20;;
70487;SDS011;57976;48.174;16.370;2022-10-16T01:17:59;33.80;;;21.00;;
70487;SDS011;57976;48.174;16.370;2022-10-16T01:20:11;33.20;;;20.80;;
70487;SDS011;57976;48.174;16.370;2022-10-16T01:22:24;33.00;;;20.50;;
70487;SDS011;57976;48.174;16.370;2022-10-16T01:24:37;33.80;;;21.40;;
70487;SDS011;57976;48.174;16.370;2022-10-16T01:26:48;32.60;;;20.90;;
70487;SDS011;57976;48.174;16.370;2022-10-16T01:29:03;32.50;;;20.70;;
70487;SDS011;57976;48.174;16.370;2022-10-16T01:31:11;31.60;;;20.80;;
70487;SDS011;57976;48.174;16.370;2022-10-16T01:33:21;32.10;;;19.70;;
70487;SDS011;57976;48.174;16.370;2022-10-16T01:35:32;33.40;;;21.40;;
70487;SDS011;57976;48.174;16.370;2022-10-16T01:37:41;31.20;;;20.10;;
70487;SDS011;57976;48.174;16.370;2022-10-16T01:39:51;32.10;;;20.40;;
70487;SDS011;57976;48.174;16.370;2022-10-16T01:42:03;32.90;;;20.30;;
70487;SDS011;57976;48.174;16.370;2022-10-16T01:44:11;31.10;;;20.30;;
70487;SDS011;57976;48.174;16.370;2022-10-16T01:46:22;30.30;;;20.20;;
70487;SDS011;57976;48.174;16.370;2022-10-16T01:48:29;34.30;;;21.10;;
70487;SDS011;57976;48.174;16.370;2022-10-16T01:50:37;33.00;;;21.00;;
70487;SDS011;57976;48.174;16.370;2022-10-16T01:52:45;31.90;;;20.80;;
70487;SDS011;57976;48.174;16.370;2022-10-16T01:54:52;32.10;;;21.20;;
70487;SDS011;57976;48.174;16.370;2022-10-16T01:56:59;32.30;;;19.70;;
70487;SDS011;57976;48.174;16.370;2022-10-16T01:59:09;31.50;;;20.50;;
70487;SDS011;57976;48.174;16.370;2022-10-16T02:01:16;33.00;;;20.80;;
70487;SDS011;57976;48.174;16.370;2022-10-16T02:03:24;32.40;;;20.60;;
70487;SDS011;57976;48.174;16.370;2022-10-16T02:05:31;31.00;;;20.50;;
70487;SDS011;57976;48.174;16.370;2022-10-16T02:07:40;31.70;;;20.50;;
70487;SDS011;57976;48.174;16.370;2022-10-16T02:09:46;32.00;;;21.60;;
70487;SDS011;57976;48.174;16.370;2022-10-16T02:11:51;30.60;;;20.10;;
70487;SDS011;57976;48.174;16.370;2022-10-16T02:14:00;28.00;;;19.30;;
70487;SDS011;57976;48.174;16.370;2022-10-16T02:16:08;29.00;;;19.30;;
70487;SDS011;57976;48.174;16.370;2022-10-16T02:18:14;30.10;;;19.10;;
70487;SDS011;57976;48.174;16.370;2022-10-16T02:20:19;30.00;;;20.10;;
70487;SDS011;57976;48.174;16.370;2022-10-16T02:22:30;30.30;;;19.70;;
70487;SDS011;57976;48.174;16.370;2022-10-16T02:24:39;28.40;;;18.60;;
70487;SDS011;57976;48.174;16.370;2022-10-16T02:26:55;28.70;;;18.50;;
70487;SDS011;57976;48.174;16.370;2022-10-16T02:29:07;29.30;;;19.00;;
70487;SDS011;57976;48.174;16.370;2022-10-16T02:31:15;27.20;;;18.60;;
70487;SDS011;57976;48.174;16.370;2022-10-16T02:33:25;28.00;;;18.30;;
70487;SDS011;57976;48.174;16.370;2022-10-16T02:35:31;31.90;;;18.80;;
70487;SDS011;57976;48.174;16.370;2022-10-16T02:37:37;29.10;;;18.60;;
70487;SDS011;57976;48.174;16.370;2022-10-16T02:39:43;28.50;;;18.80;;
70487;SDS011;57976;48.174;16.370;2022-10-16T02:41:48;27.00;;;17.90;;
70487;SDS011;57976;48.174;16.370;2022-10-16T02:43:53;29.80;;;18.20;;
70487;SDS011;57976;48.174;16.370;2022-10-16T02:45:57;27.80;;;18.00;;
70487;SDS011;57976;48.174;16.370;2022-10-16T02:48:02;28.00;;;18.00;;
70487;SDS011;57976;48.174;16.370;2022-10-16T02:50:07;29.70;;;18.40;;
70487;SDS011;57976;48.174;16.370;2022-10-16T02:52:12;26.00;;;18.00;;
70487;SDS011;57976;48.174;16.370;2022-10-16T02:54:17;25.00;;;16.80;;
70487;SDS011;57976;48.174;16.370;2022-10-16T02:56:22;24.40;;;16.80;;
70487;SDS011;57976;48.174;16.370;2022-10-16T02:58:27;24.60;;;17.00;;
70487;SDS011;57976;48.174;16.370;2022-10-16T03:00:32;24.20;;;13.10;;
70487;SDS011;57976;48.174;16.370;2022-10-16T03:02:37;30.50;;;16.70;;
70487;SDS011;57976;48.174;16.370;2022-10-16T03:04:41;25.40;;;16.20;;
70487;SDS011;57976;48.174;16.370;2022-10-16T03:06:46;23.00;;;15.80;;
70487;SDS011;57976;48.174;16.370;2022-10-16T03:08:51;24.40;;;16.00;;
70487;SDS011;57976;48.174;16.370;2022-10-16T03:10:56;24.50;;;15.50;;
70487;SDS011;57976;48.174;16.370;2022-10-16T03:13:02;25.30;;;16.40;;
70487;SDS011;57976;48.174;16.370;2022-10-16T03:15:09;24.80;;;16.30;;
70487;SDS011;57976;48.174;16.370;2022-10-16T03:17:15;24.70;;;16.30;;
70487;SDS011;57976;48.174;16.370;2022-10-16T03:19:20;26.00;;;15.90;;
70487;SDS011;57976;48.174;16.370;2022-10-16T03:21:25;25.20;;;15.90;;
70487;SDS011;57976;48.174;16.370;2022-10-16T03:23:29;26.40;;;17.10;;
70487;SDS011;57976;48.174;16.370;2022-10-16T03:25:34;25.80;;;16.60;;
70487;SDS011;57976;48.174;16.370;2022-10-16T03:27:39;25.20;;;16.10;;
70487;SDS011;57976;48.174;16.370;2022-10-16T03:29:47;25.20;;;16.90;;
70487;SDS011;57976;48.174;16.370;2022-10-16T03:31:51;26.10;;;15.90;;
70487;SDS011;57976;48.174;16.370;2022-10-16T03:33:56;25.70;;;16.10;;
70487;SDS011;57976;48.174;16.370;2022-10-16T03:36:00;25.10;;;15.20;;
70487;SDS011;57976;48.174;16.370;2022-10-16T03:38:05;26.10;;;15.60;;
70487;SDS011;57976;48.174;16.370;2022-10-16T03:40:10;25.30;;;15.70;;
70487;SDS011;57976;48.174;16.370;2022-10-16T03:42:15;25.20;;;15.40;;
70487;SDS011;57976;48.174;16.370;2022-10-16T03:44:19;24.20;;;15.00;;
70487;SDS011;57976;48.174;16.370;2022-10-16T03:46:24;24.90;;;15.30;;
70487;SDS011;57976;48.174;16.370;2022-10-16T03:48:29;25.00;;;15.00;;
70487;SDS011;57976;48.174;16.370;2022-10-16T03:50:34;23.90;;;14.60;;
70487;SDS011;57976;48.174;16.370;2022-10-16T03:52:39;23.30;;;14.20;;
70487;SDS011;57976;48.174;16.370;2022-10-16T03:54:43;22.70;;;14.20;;
70487;SDS011;57976;48.174;16.370;2022-10-16T03:56:48;22.80;;;14.00;;
70487;SDS011;57976;48.174;16.370;2022-10-16T03:58:53;22.70;;;14.10;;
70487;SDS011;57976;48.174;16.370;2022-10-16T04:00:58;23.40;;;14.30;;
70487;SDS011;57976;48.174;16.370;2022-10-16T04:03:03;23.10;;;14.00;;
70487;SDS011;57976;48.174;16.370;2022-10-16T04:05:07;24.20;;;14.60;;
70487;SDS011;57976;48.174;16.370;2022-10-16T04:07:12;25.20;;;15.20;;
70487;SDS011;57976;48.174;16.370;2022-10-16T04:09:17;24.10;;;14.90;;
70487;SDS011;57976;48.174;16.370;2022-10-16T04:11:21;23.80;;;15.10;;
70487;SDS011;57976;48.174;16.370;2022-10-16T04:13:26;25.10;;;14.80;;
70487;SDS011;57976;48.174;16.370;2022-10-16T04:17:35;23.50;;;14.60;;
70487;SDS011;57976;48.174;16.370;2022-10-16T04:19:40;22.20;;;14.20;;
70487;SDS011;57976;48.174;16.370;2022-10-16T04:21:45;22.80;;;14.50;;
70487;SDS011;57976;48.174;16.370;2022-10-16T04:23:49;22.90;;;14.70;;
70487;SDS011;57976;48.174;16.370;2022-10-16T04:25:54;22.00;;;14.20;;
70487;SDS011;57976;48.174;16.370;2022-10-16T04:27:59;22.20;;;14.00;;
70487;SDS011;57976;48.174;16.370;2022-10-16T04:30:04;21.40;;;14.10;;
70487;SDS011;57976;48.174;16.370;2022-10-16T04:32:09;18.80;;;12.20;;
70487;SDS011;57976;48.174;16.370;2022-10-16T04:34:14;20.20;;;13.00;;
70487;SDS011;57976;48.174;16.370;2022-10-16T04:36:19;20.40;;;12.40;;
70487;SDS011;57976;48.174;16.370;2022-10-16T04:38:28;19.60;;;13.00;;
70487;SDS011;57976;48.174;16.370;2022-10-16T04:40:33;19.40;;;12.30;;
70487;SDS011;57976;48.174;16.370;2022-10-16T04:42:38;19.60;;;12.20;;
70487;SDS011;57976;48.174;16.370;2022-10-16T04:44:42;19.20;;;12.00;;
70487;SDS011;57976;48.174;16.370;2022-10-16T04:46:47;22.20;;;12.60;;
70487;SDS011;57976;48.174;16.370;2022-10-16T04:48:52;20.90;;;12.80;;
70487;SDS011;57976;48.174;16.370;2022-10-16T04:50:57;19.20;;;11.80;;
70487;SDS011;57976;48.174;16.370;2022-10-16T04:53:02;22.20;;;12.30;;
70487;SDS011;57976;48.174;16.370;2022-10-16T04:55:07;21.70;;;12.30;;
70487;SDS011;57976;48.174;16.370;2022-10-16T04:57:12;21.40;;;12.50;;
70487;SDS011;57976;48.174;16.370;2022-10-16T04:59:17;24.90;;;13.50;;
70487;SDS011;57976;48.174;16.370;2022-10-16T05:01:22;20.40;;;12.50;;
70487;SDS011;57976;48.174;16.370;2022-10-16T05:03:27;22.20;;;12.70;;
70487;SDS011;57976;48.174;16.370;2022-10-16T05:05:32;18.90;;;12.00;;
70487;SDS011;57976;48.174;16.370;2022-10-16T05:07:37;20.30;;;11.80;;
70487;SDS011;57976;48.174;16.370;2022-10-16T05:09:42;20.60;;;11.90;;
70487;SDS011;57976;48.174;16.370;2022-10-16T05:11:46;19.30;;;11.40;;
70487;SDS011;57976;48.174;16.370;2022-10-16T05:13:51;19.70;;;11.70;;
70487;SDS011;57976;48.174;16.370;2022-10-16T05:15:57;19.30;;;11.10;;
70487;SDS011;57976;48.174;16.370;2022-10-16T05:18:02;18.50;;;11.40;;
70487;SDS011;57976;48.174;16.370;2022-10-16T05:20:07;20.60;;;11.90;;
70487;SDS011;57976;48.174;16.370;2022-10-16T05:22:12;19.20;;;11.00;;
70487;SDS011;57976;48.174;16.370;2022-10-16T05:24:18;20.00;;;11.50;;
70487;SDS011;57976;48.174;16.370;2022-10-16T05:26:23;21.60;;;11.20;;
70487;SDS011;57976;48.174;16.370;2022-10-16T05:28:28;28.20;;;16.20;;
70487;SDS011;57976;48.174;16.370;2022-10-16T05:30:34;21.70;;;11.90;;
70487;SDS011;57976;48.174;16.370;2022-10-16T05:32:39;20.60;;;11.60;;
70487;SDS011;57976;48.174;16.370;2022-10-16T05:34:44;21.70;;;11.30;;
70487;SDS011;57976;48.174;16.370;2022-10-16T05:36:49;21.00;;;11.40;;
70487;SDS011;57976;48.174;16.370;2022-10-16T05:38:54;23.00;;;11.70;;
70487;SDS011;57976;48.174;16.370;2022-10-16T05:40:58;21.30;;;11.80;;
70487;SDS011;57976;48.174;16.370;2022-10-16T05:43:03;21.10;;;11.70;;
70487;SDS011;57976;48.174;16.370;2022-10-16T05:45:09;22.40;;;11.90;;
70487;SDS011;57976;48.174;16.370;2022-10-16T05:47:14;22.00;;;12.50;;
70487;SDS011;57976;48.174;16.370;2022-10-16T05:49:19;23.40;;;13.00;;
70487;SDS011;57976;48.174;16.370;2022-10-16T05:51:23;22.20;;;13.30;;
70487;SDS011;57976;48.174;16.370;2022-10-16T05:53:29;23.00;;;13.70;;
70487;SDS011;57976;48.174;16.370;2022-10-16T05:55:35;24.60;;;15.10;;
70487;SDS011;57976;48.174;16.370;2022-10-16T05:57:40;27.10;;;16.00;;
70487;SDS011;57976;48.174;16.370;2022-10-16T05:59:45;26.60;;;16.60;;
70487;SDS011;57976;48.174;16.370;2022-10-16T06:01:49;30.40;;;19.00;;
70487;SDS011;57976;48.174;16.370;2022-10-16T06:03:54;49.60;;;28.50;;
70487;SDS011;57976;48.174;16.370;2022-10-16T06:05:59;39.80;;;23.80;;
70487;SDS011;57976;48.174;16.370;2022-10-16T06:08:15;48.30;;;29.30;;
70487;SDS011;57976;48.174;16.370;2022-10-16T06:10:21;55.10;;;32.40;;
70487;SDS011;57976;48.174;16.370;2022-10-16T06:12:28;36.90;;;23.00;;
70487;SDS011;57976;48.174;16.370;2022-10-16T06:14:33;37.90;;;22.80;;
70487;SDS011;57976;48.174;16.370;2022-10-16T06:16:37;31.90;;;19.90;;
70487;SDS011;57976;48.174;16.370;2022-10-16T06:18:42;32.90;;;20.80;;
70487;SDS011;57976;48.174;16.370;2022-10-16T06:20:47;29.70;;;18.90;;
70487;SDS011;57976;48.174;16.370;2022-10-16T06:22:52;29.00;;;18.90;;
70487;SDS011;57976;48.174;16.370;2022-10-16T06:24:56;34.30;;;21.30;;
70487;SDS011;57976;48.174;16.370;2022-10-16T06:27:01;32.30;;;19.80;;
70487;SDS011;57976;48.174;16.370;2022-10-16T06:29:07;31.60;;;19.80;;
70487;SDS011;57976;48.174;16.370;2022-10-16T06:31:12;31.80;;;19.40;;
70487;SDS011;57976;48.174;16.370;2022-10-16T06:33:18;31.10;;;19.30;;
70487;SDS011;57976;48.174;16.370;2022-10-16T06:35:22;30.80;;;19.50;;
70487;SDS011;57976;48.174;16.370;2022-10-16T06:37:27;29.70;;;19.30;;
70487;SDS011;57976;48.174;16.370;2022-10-16T06:39:32;31.30;;;19.00;;
70487;SDS011;57976;48.174;16.370;2022-10-16T06:41:37;29.50;;;18.70;;
70487;SDS011;57976;48.174;16.370;2022-10-16T06:43:50;30.90;;;19.20;;
70487;SDS011;57976;48.174;16.370;2022-10-16T06:45:56;30.50;;;19.00;;
70487;SDS011;57976;48.174;16.370;2022-10-16T06:48:02;33.00;;;20.50;;
70487;SDS011;57976;48.174;16.370;2022-10-16T06:50:07;35.80;;;21.90;;
70487;SDS011;57976;48.174;16.370;2022-10-16T06:52:12;43.60;;;27.10;;
70487;SDS011;57976;48.174;16.370;2022-10-16T06:54:16;29.40;;;19.10;;
70487;SDS011;57976;48.174;16.370;2022-10-16T06:56:22;28.10;;;18.20;;
70487;SDS011;57976;48.174;16.370;2022-10-16T06:58:27;30.70;;;19.00;;
70487;SDS011;57976;48.174;16.370;2022-10-16T07:00:32;30.20;;;19.20;;
70487;SDS011;57976;48.174;16.370;2022-10-16T07:02:37;30.50;;;18.90;;
70487;SDS011;57976;48.174;16.370;2022-10-16T07:04:41;30.20;;;19.50;;
70487;SDS011;57976;48.174;16.370;2022-10-16T07:06:46;29.90;;;18.90;;
70487;SDS011;57976;48.174;16.370;2022-10-16T07:08:51;28.70;;;18.30;;
70487;SDS011;57976;48.174;16.370;2022-10-16T07:10:59;31.20;;;19.10;;
70487;SDS011;57976;48.174;16.370;2022-10-16T07:13:04;28.60;;;18.50;;
70487;SDS011;57976;48.174;16.370;2022-10-16T07:15:09;30.80;;;19.30;;
70487;SDS011;57976;48.174;16.370;2022-10-16T07:17:15;30.90;;;19.70;;
70487;SDS011;57976;48.174;16.370;2022-10-16T07:19:20;31.00;;;19.30;;
70487;SDS011;57976;48.174;16.370;2022-10-16T07:21:25;31.40;;;19.30;;
70487;SDS011;57976;48.174;16.370;2022-10-16T07:23:31;32.20;;;20.10;;
70487;SDS011;57976;48.174;16.370;2022-10-16T07:25:36;31.80;;;19.30;;
70487;SDS011;57976;48.174;16.370;2022-10-16T07:27:41;32.50;;;20.50;;
70487;SDS011;57976;48.174;16.370;2022-10-16T07:29:45;33.70;;;20.60;;
70487;SDS011;57976;48.174;16.370;2022-10-16T07:31:50;32.40;;;20.30;;
70487;SDS011;57976;48.174;16.370;2022-10-16T07:33:55;34.60;;;20.70;;
70487;SDS011;57976;48.174;16.370;2022-10-16T07:36:00;33.80;;;21.00;;
70487;SDS011;57976;48.174;16.370;2022-10-16T07:38:05;34.90;;;20.80;;
70487;SDS011;57976;48.174;16.370;2022-10-16T07:40:10;35.90;;;22.00;;
70487;SDS011;57976;48.174;16.370;2022-10-16T07:42:15;35.40;;;21.50;;
70487;SDS011;57976;48.174;16.370;2022-10-16T07:44:20;37.50;;;22.10;;
70487;SDS011;57976;48.174;16.370;2022-10-16T07:46:24;36.20;;;21.70;;
70487;SDS011;57976;48.174;16.370;2022-10-16T07:48:30;37.90;;;22.20;;
70487;SDS011;57976;48.174;16.370;2022-10-16T07:50:35;34.30;;;20.90;;
70487;SDS011;57976;48.174;16.370;2022-10-16T07:52:40;36.60;;;21.90;;
70487;SDS011;57976;48.174;16.370;2022-10-16T07:54:45;35.90;;;21.30;;
70487;SDS011;57976;48.174;16.370;2022-10-16T07:56:51;35.20;;;21.60;;
70487;SDS011;57976;48.174;16.370;2022-10-16T07:58:57;34.70;;;20.80;;
70487;SDS011;57976;48.174;16.370;2022-10-16T08:01:03;32.90;;;21.20;;
70487;SDS011;57976;48.174;16.370;2022-10-16T08:03:12;35.40;;;20.80;;
70487;SDS011;57976;48.174;16.370;2022-10-16T08:05:17;34.30;;;21.00;;
70487;SDS011;57976;48.174;16.370;2022-10-16T08:07:25;36.50;;;21.60;;
70487;SDS011;57976;48.174;16.370;2022-10-16T08:09:30;33.40;;;21.20;;
70487;SDS011;57976;48.174;16.370;2022-10-16T08:11:35;32.10;;;20.20;;
70487;SDS011;57976;48.174;16.370;2022-10-16T08:13:40;33.50;;;20.80;;
70487;SDS011;57976;48.174;16.370;2022-10-16T08:15:46;36.60;;;23.20;;
70487;SDS011;57976;48.174;16.370;2022-10-16T08:17:58;35.70;;;22.20;;
70487;SDS011;57976;48.174;16.370;2022-10-16T08:20:04;37.50;;;23.00;;
70487;SDS011;57976;48.174;16.370;2022-10-16T08:22:10;33.70;;;20.80;;
70487;SDS011;57976;48.174;16.370;2022-10-16T08:24:16;31.40;;;19.80;;
70487;SDS011;57976;48.174;16.370;2022-10-16T08:26:21;33.20;;;20.50;;
70487;SDS011;57976;48.174;16.370;2022-10-16T08:28:25;32.50;;;20.20;;
70487;SDS011;57976;48.174;16.370;2022-10-16T08:30:30;34.10;;;19.70;;
70487;SDS011;57976;48.174;16.370;2022-10-16T08:32:35;32.60;;;20.30;;
70487;SDS011;57976;48.174;16.370;2022-10-16T08:34:40;32.40;;;20.60;;
70487;SDS011;57976;48.174;16.370;2022-10-16T08:36:45;33.80;;;21.30;;
70487;SDS011;57976;48.174;16.370;2022-10-16T08:38:52;31.90;;;20.30;;
70487;SDS011;57976;48.174;16.370;2022-10-16T08:43:39;32.40;;;20.50;;
70487;SDS011;57976;48.174;16.370;2022-10-16T08:46:01;29.40;;;19.20;;
70487;SDS011;57976;48.174;16.370;2022-10-16T08:48:25;29.70;;;18.70;;
70487;SDS011;57976;48.174;16.370;2022-10-16T08:50:35;28.50;;;19.00;;
70487;SDS011;57976;48.174;16.370;2022-10-16T08:52:43;27.80;;;18.20;;
70487;SDS011;57976;48.174;16.370;2022-10-16T08:54:48;29.60;;;18.80;;
70487;SDS011;57976;48.174;16.370;2022-10-16T08:56:56;30.40;;;19.40;;
70487;SDS011;57976;48.174;16.370;2022-10-16T08:59:11;29.00;;;19.20;;
70487;SDS011;57976;48.174;16.370;2022-10-16T09:01:17;32.90;;;21.10;;
70487;SDS011;57976;48.174;16.370;2022-10-16T09:03:31;27.30;;;17.90;;
70487;SDS011;57976;48.174;16.370;2022-10-16T09:05:57;25.90;;;17.30;;
70487;SDS011;57976;48.174;16.370;2022-10-16T09:08:12;28.10;;;17.50;;
70487;SDS011;57976;48.174;16.370;2022-10-16T09:10:26;27.60;;;18.20;;
70487;SDS011;57976;48.174;16.370;2022-10-16T09:12:43;26.60;;;18.00;;
70487;SDS011;57976;48.174;16.370;2022-10-16T09:14:58;26.80;;;17.60;;
70487;SDS011;57976;48.174;16.370;2022-10-16T09:17:18;26.50;;;18.10;;
70487;SDS011;57976;48.174;16.370;2022-10-16T09:19:35;28.20;;;18.90;;
70487;SDS011;57976;48.174;16.370;2022-10-16T09:21:48;28.70;;;18.90;;
70487;SDS011;57976;48.174;16.370;2022-10-16T09:23:53;29.10;;;18.70;;
70487;SDS011;57976;48.174;16.370;2022-10-16T09:25:59;27.40;;;18.20;;
70487;SDS011;57976;48.174;16.370;2022-10-16T09:28:06;27.60;;;18.80;;
70487;SDS011;57976;48.174;16.370;2022-10-16T09:30:13;28.20;;;18.80;;
70487;SDS011;57976;48.174;16.370;2022-10-16T09:32:20;29.70;;;19.10;;
70487;SDS011;57976;48.174;16.370;2022-10-16T09:34:27;29.30;;;19.10;;
70487;SDS011;57976;48.174;16.370;2022-10-16T09:36:36;28.60;;;18.60;;
70487;SDS011;57976;48.174;16.370;2022-10-16T09:38:47;30.10;;;19.00;;
70487;SDS011;57976;48.174;16.370;2022-10-16T09:40:51;28.20;;;18.60;;
70487;SDS011;57976;48.174;16.370;2022-10-16T09:43:06;27.90;;;18.40;;
70487;SDS011;57976;48.174;16.370;2022-10-16T09:45:22;29.40;;;19.20;;
70487;SDS011;57976;48.174;16.370;2022-10-16T09:47:28;28.90;;;18.60;;
70487;SDS011;57976;48.174;16.370;2022-10-16T09:49:33;29.40;;;18.70;;
70487;SDS011;57976;48.174;16.370;2022-10-16T09:51:38;29.40;;;18.80;;
70487;SDS011;57976;48.174;16.370;2022-10-16T09:53:44;26.60;;;17.30;;
70487;SDS011;57976;48.174;16.370;2022-10-16T09:55:49;26.60;;;16.30;;
70487;SDS011;57976;48.174;16.370;2022-10-16T09:57:55;31.90;;;19.50;;
70487;SDS011;57976;48.174;16.370;2022-10-16T10:00:00;31.60;;;20.10;;
70487;SDS011;57976;48.174;16.370;2022-10-16T10:02:11;32.80;;;19.90;;
70487;SDS011;57976;48.174;16.370;2022-10-16T10:04:20;32.10;;;20.40;;
70487;SDS011;57976;48.174;16.370;2022-10-16T10:06:28;31.00;;;19.90;;
70487;SDS011;57976;48.174;16.370;2022-10-16T10:08:35;31.80;;;20.20;;
70487;SDS011;57976;48.174;16.370;2022-10-16T10:10:44;31.60;;;19.80;;
70487;SDS011;57976;48.174;16.370;2022-10-16T10:12:52;32.50;;;20.10;;
70487;SDS011;57976;48.174;16.370;2022-10-16T10:14:58;32.30;;;20.20;;
70487;SDS011;57976;48.174;16.370;2022-10-16T10:17:11;30.50;;;20.30;;
70487;SDS011;57976;48.174;16.370;2022-10-16T10:19:21;30.80;;;19.20;;
70487;SDS011;57976;48.174;16.370;2022-10-16T10:21:33;30.70;;;19.60;;
70487;SDS011;57976;48.174;16.370;2022-10-16T10:23:40;35.20;;;22.50;;
70487;SDS011;57976;48.174;16.370;2022-10-16T10:25:48;31.90;;;20.80;;
70487;SDS011;57976;48.174;16.370;2022-10-16T10:28:02;30.60;;;20.00;;
70487;SDS011;57976;48.174;16.370;2022-10-16T10:30:22;30.60;;;19.30;;
70487;SDS011;57976;48.174;16.370;2022-10-16T10:32:31;30.50;;;19.60;;
70487;SDS011;57976;48.174;16.370;2022-10-16T10:34:48;31.70;;;19.70;;
70487;SDS011;57976;48.174;16.370;2022-10-16T10:37:04;31.20;;;20.50;;
70487;SDS011;57976;48.174;16.370;2022-10-16T10:39:20;31.20;;;19.80;;
70487;SDS011;57976;48.174;16.370;2022-10-16T10:44:11;32.30;;;20.20;;
70487;SDS011;57976;48.174;16.370;2022-10-16T10:46:23;30.40;;;19.70;;
70487;SDS011;57976;48.174;16.370;2022-10-16T10:48:47;31.80;;;19.40;;
70487;SDS011;57976;48.174;16.370;2022-10-16T10:51:05;31.40;;;19.90;;
70487;SDS011;57976;48.174;16.370;2022-10-16T10:53:21;31.90;;;19.90;;
70487;SDS011;57976;48.174;16.370;2022-10-16T10:55:36;30.80;;;20.50;;
70487;SDS011;57976;48.174;16.370;2022-10-16T10:57:49;34.00;;;20.90;;
70487;SDS011;57976;48.174;16.370;2022-10-16T11:00:08;32.20;;;21.10;;
70487;SDS011;57976;48.174;16.370;2022-10-16T11:02:25;33.70;;;21.00;;
70487;SDS011;57976;48.174;16.370;2022-10-16T11:04:42;33.60;;;21.00;;
70487;SDS011;57976;48.174;16.370;2022-10-16T11:07:08;34.80;;;20.80;;
70487;SDS011;57976;48.174;16.370;2022-10-16T11:09:19;32.30;;;21.20;;
70487;SDS011;57976;48.174;16.370;2022-10-16T11:11:29;34.20;;;21.70;;
70487;SDS011;57976;48.174;16.370;2022-10-16T11:13:38;33.90;;;21.50;;
70487;SDS011;57976;48.174;16.370;2022-10-16T11:15:47;33.70;;;20.90;;
70487;SDS011;57976;48.174;16.370;2022-10-16T11:17:57;34.50;;;21.40;;
70487;SDS011;57976;48.174;16.370;2022-10-16T11:20:11;35.50;;;21.30;;
70487;SDS011;57976;48.174;16.370;2022-10-16T11:22:21;34.10;;;21.00;;
70487;SDS011;57976;48.174;16.370;2022-10-16T11:24:32;34.30;;;21.80;;
70487;SDS011;57976;48.174;16.370;2022-10-16T11:26:44;36.80;;;22.80;;
70487;SDS011;57976;48.174;16.370;2022-10-16T11:28:52;32.00;;;21.10;;
70487;SDS011;57976;48.174;16.370;2022-10-16T11:30:59;36.00;;;21.20;;
70487;SDS011;57976;48.174;16.370;2022-10-16T11:33:14;33.70;;;21.70;;
70487;SDS011;57976;48.174;16.370;2022-10-16T11:35:32;33.20;;;21.40;;
70487;SDS011;57976;48.174;16.370;2022-10-16T11:37:44;33.00;;;21.10;;
70487;SDS011;57976;48.174;16.370;2022-10-16T11:39:54;32.60;;;21.80;;
70487;SDS011;57976;48.174;16.370;2022-10-16T11:42:07;34.80;;;21.20;;
70487;SDS011;57976;48.174;16.370;2022-10-16T11:44:22;37.00;;;23.30;;
70487;SDS011;57976;48.174;16.370;2022-10-16T11:46:45;36.70;;;22.70;;
70487;SDS011;57976;48.174;16.370;2022-10-16T11:49:11;35.60;;;22.20;;
70487;SDS011;57976;48.174;16.370;2022-10-16T11:51:21;33.10;;;21.10;;
70487;SDS011;57976;48.174;16.370;2022-10-16T11:53:42;34.90;;;21.50;;
70487;SDS011;57976;48.174;16.370;2022-10-16T11:55:54;33.70;;;21.40;;
70487;SDS011;57976;48.174;16.370;2022-10-16T11:58:00;34.90;;;22.60;;
70487;SDS011;57976;48.174;16.370;2022-10-16T12:00:09;36.20;;;22.20;;
70487;SDS011;57976;48.174;16.370;2022-10-16T12:04:56;35.90;;;23.50;;
70487;SDS011;57976;48.174;16.370;2022-10-16T12:07:10;36.00;;;22.90;;
70487;SDS011;57976;48.174;16.370;2022-10-16T12:09:21;38.10;;;24.10;;
70487;SDS011;57976;48.174;16.370;2022-10-16T12:11:36;36.00;;;24.00;;
70487;SDS011;57976;48.174;16.370;2022-10-16T12:13:41;36.30;;;24.00;;
70487;SDS011;57976;48.174;16.370;2022-10-16T12:15:46;38.50;;;25.40;;
70487;SDS011;57976;48.174;16.370;2022-10-16T12:18:01;38.00;;;24.80;;
70487;SDS011;57976;48.174;16.370;2022-10-16T12:20:23;35.70;;;22.90;;
70487;SDS011;57976;48.174;16.370;2022-10-16T12:22:30;35.40;;;22.90;;
70487;SDS011;57976;48.174;16.370;2022-10-16T12:24:41;36.50;;;24.80;;
70487;SDS011;57976;48.174;16.370;2022-10-16T12:26:46;36.50;;;23.50;;